Portada
METAR-TAF:

METAR-TAF

Aeroports :

São Gabriel da Cachoeira, Amazones, Brasil

latitud: 00-08S, longitud: 067-05W, altitud: 90 m

Observació

L'informe es va fer fa 27 minuts, a les 19:00 UTC
Vent 4 kt del Nord/Nord-Est
Temperatura 32°C
Humitat 67%
Pressió 1005 hPa
Visibilitat 10 km o més
Escasses núvols a una alçada de 2500 ft
Escasses núvols a una alçada de 2700 ft, Cumulus congestus.
Núvols disperses a una alçada de 10000 ft

METAR: SBUA 101900Z 03004KT 9999 FEW025 FEW027TCU SCT100 32/25 Q1005

Hora: 15:27 (19:27 UTC)


TAF: manca

Observacions i pronòstics meteorològics de més de 4000 aeroports (METAR i TAF).

Les estacions disponibles són els punts grocs i vermells al mapa.

Posi el ratolí al punt desitjat per veure el nom de l'estació.

Feu clic per veure les observacions i els pronòstics meteorològics.

Per canviar el mapa: feu clic els botons verds amb una creu de color negre per apropar; al botó verd amb un guió per allunyar la imatge; o en les fletxes verdes per a mapes adjacents.


METAR-TAF: